Time;durP1;ratioP1;P1;durP2;ratioP2;P2;SDS_P1;SDS_P2;PMS_P1;PMS_P2;Temp;Humidity;BMP_temperature;BMP_pressure;BME280_temperature;BME280_humidity;BME280_pressure;Samples;Min_cycle;Max_cycle;Signal;HPM_P1;HPM_P2
2022/09/25 00:01:13;;;;;;;35.30;21.70;;;;;;;7.50;87.67;98250.47;105110;1280;138990;-74
2022/09/25 00:03:46;;;;;;;33.00;21.30;;;;;;;7.48;87.62;98248.45;104998;1282;25380;-74
2022/09/25 00:06:19;;;;;;;35.90;21.40;;;;;;;7.48;87.77;98248.88;104952;1282;138116;-74
2022/09/25 00:08:47;;;;;;;30.90;21.40;;;;;;;7.48;87.95;98255.97;104975;1282;22756;-74
2022/09/25 00:11:18;;;;;;;29.50;19.60;;;;;;;7.44;88.11;98256.32;105248;1281;22583;-74
2022/09/25 00:13:46;;;;;;;26.60;17.40;;;;;;;7.33;86.78;98255.21;105128;1282;137848;-74
2022/09/25 00:16:17;;;;;;;28.00;18.30;;;;;;;7.20;86.59;98256.92;105238;1281;25321;-74
2022/09/25 00:21:31;;;;;;;29.70;18.90;;;;;;;7.07;87.20;98252.80;105301;1281;25377;-74
2022/09/25 00:24:00;;;;;;;29.80;19.80;;;;;;;7.05;87.77;98253.44;104912;1282;138505;-75
2022/09/25 00:26:29;;;;;;;32.90;20.60;;;;;;;7.04;87.87;98252.83;105121;1282;24319;-75
2022/09/25 00:29:00;;;;;;;28.50;19.10;;;;;;;7.06;88.57;98253.20;105274;1281;22563;-74
2022/09/25 00:31:28;;;;;;;31.70;19.80;;;;;;;7.07;88.17;98253.77;104969;1282;138233;-74
2022/09/25 00:33:59;;;;;;;34.60;20.90;;;;;;;7.08;88.40;98252.13;104973;1284;24287;-75
2022/09/25 00:36:27;;;;;;;29.20;19.50;;;;;;;7.08;88.63;98250.99;105096;1281;138851;-75
2022/09/25 00:38:54;;;;;;;26.70;17.80;;;;;;;7.03;87.95;98247.89;105031;1282;22564;-74
2022/09/25 00:41:24;;;;;;;27.90;17.80;;;;;;;6.96;87.65;98248.85;105169;1281;22541;-74
2022/09/25 00:43:55;;;;;;;29.10;18.40;;;;;;;6.88;87.94;98249.23;105221;1281;137923;-74
2022/09/25 00:46:34;;;;;;;25.40;18.50;;;;;;;6.83;88.11;98245.84;105110;1281;23624;-74
2022/09/25 00:49:05;;;;;;;28.70;19.40;;;;;;;6.80;88.29;98243.59;105043;1281;138396;-75
2022/09/25 00:51:39;;;;;;;29.20;19.30;;;;;;;6.79;88.85;98242.30;105004;1282;25418;-74
2022/09/25 00:54:14;;;;;;;28.80;19.30;;;;;;;6.80;89.06;98239.80;105193;1281;138874;-75
2022/09/25 00:56:44;;;;;;;28.20;18.50;;;;;;;6.81;89.39;98233.23;105257;1281;25364;-74
2022/09/25 00:59:21;;;;;;;26.40;18.40;;;;;;;6.84;89.25;98230.88;105140;1281;22760;-75
2022/09/25 01:01:54;;;;;;;30.40;18.80;;;;;;;6.88;89.78;98227.50;105082;1281;138687;-74
2022/09/25 01:04:22;;;;;;;27.70;19.20;;;;;;;6.91;89.59;98225.38;105075;1282;25264;-74
2022/09/25 01:06:49;;;;;;;33.40;21.80;;;;;;;6.93;89.56;98224.40;105061;1282;138066;-74
2022/09/25 01:09:16;;;;;;;33.00;21.60;;;;;;;6.95;89.76;98221.67;105288;1281;22622;-74
2022/09/25 01:11:45;;;;;;;33.00;21.30;;;;;;;6.98;90.06;98225.54;105231;1282;22601;-75
2022/09/25 01:14:16;;;;;;;28.80;18.40;;;;;;;7.00;90.16;98222.11;104809;1282;137786;-74
2022/09/25 01:17:12;;;;;;;24.90;17.50;;;;;;;6.96;88.94;98220.11;105302;1281;25218;-74
2022/09/25 01:19:42;;;;;;;30.20;17.90;;;;;;;6.89;88.67;98213.74;104955;1282;138512;-74
2022/09/25 01:22:39;;;;;;;28.90;18.00;;;;;;;6.85;88.83;98213.59;104975;1282;25427;-74
2022/09/25 01:25:15;;;;;;;30.10;19.60;;;;;;;6.83;89.27;98212.98;105101;1281;138586;-75
2022/09/25 01:28:16;;;;;;;30.90;20.90;;;;;;;6.83;89.53;98208.77;105222;1281;24251;-75
2022/09/25 01:30:49;;;;;;;31.70;19.90;;;;;;;6.88;89.87;98204.81;104313;1290;137916;-75
2022/09/25 01:33:26;;;;;;;32.80;20.90;;;;;;;6.90;90.03;98200.45;104314;1290;24281;-75
2022/09/25 01:36:01;;;;;;;33.00;21.40;;;;;;;6.92;90.29;98199.88;104134;1290;138900;-75
2022/09/25 01:38:50;;;;;;;33.60;21.50;;;;;;;6.96;90.42;98203.61;104295;1291;22676;-74
2022/09/25 01:41:43;;;;;;;33.40;21.40;;;;;;;7.01;90.70;98206.01;104219;1290;22735;-75
2022/09/25 01:44:30;;;;;;;34.00;20.50;;;;;;;7.04;90.77;98207.13;104237;1290;137981;-75
2022/09/25 01:47:19;;;;;;;31.80;20.60;;;;;;;7.09;90.88;98207.53;104398;1290;24365;-76
2022/09/25 01:49:56;;;;;;;33.00;19.50;;;;;;;7.12;90.94;98207.94;104329;1288;137915;-76
2022/09/25 01:52:31;;;;;;;27.90;19.10;;;;;;;7.14;90.67;98205.77;104387;1290;22771;-76
2022/09/25 01:55:08;;;;;;;28.00;18.10;;;;;;;7.15;90.31;98208.00;104295;1290;139287;-74
2022/09/25 01:57:44;;;;;;;21.40;14.80;;;;;;;7.11;89.64;98209.48;104290;1290;22670;-73
2022/09/25 02:00:15;;;;;;;23.80;15.90;;;;;;;6.99;88.47;98208.08;104146;1291;138701;-75
2022/09/25 02:02:54;;;;;;;26.80;17.40;;;;;;;6.93;88.98;98207.18;104449;1288;24281;-74
2022/09/25 02:05:33;;;;;;;27.90;18.10;;;;;;;6.91;89.30;98202.27;104397;1288;25352;-74
2022/09/25 02:08:04;;;;;;;26.80;18.80;;;;;;;6.92;89.64;98199.21;104614;1281;138032;-74
2022/09/25 02:10:40;;;;;;;29.00;18.80;;;;;;;6.96;90.16;98205.66;105323;1282;22560;-74
2022/09/25 02:13:13;;;;;;;29.00;19.20;;;;;;;7.02;90.44;98201.70;104980;1282;139405;-74
2022/09/25 02:15:45;;;;;;;30.00;19.10;;;;;;;7.08;90.95;98204.48;105268;1282;22761;-73
2022/09/25 02:21:07;;;;;;;27.60;18.10;;;;;;;7.12;90.75;98206.99;105041;1282;25268;-76
2022/09/25 02:23:48;;;;;;;25.80;18.10;;;;;;;7.10;91.06;98207.18;105176;1282;22711;-76
2022/09/25 02:26:26;;;;;;;26.60;17.50;;;;;;;7.12;91.59;98205.28;104877;1282;137785;-73
2022/09/25 02:28:55;;;;;;;27.70;17.70;;;;;;;7.16;91.80;98201.82;105005;1282;22563;-74
2022/09/25 02:31:28;;;;;;;25.80;18.40;;;;;;;7.20;91.93;98199.56;104928;1282;138855;-73
2022/09/25 02:33:57;;;;;;;23.60;16.70;;;;;;;7.24;92.27;98198.41;105033;1282;24450;-76
2022/09/25 02:36:23;;;;;;;29.00;17.60;;;;;;;7.28;92.27;98195.27;104896;1282;138173;-73
2022/09/25 02:38:54;;;;;;;24.80;15.80;;;;;;;7.34;92.20;98193.94;104968;1282;24112;-73
2022/09/25 02:41:27;;;;;;;23.50;15.40;;;;;;;7.39;91.97;98194.36;105072;1282;22867;-73
2022/09/25 02:43:59;;;;;;;20.90;14.80;;;;;;;7.45;92.25;98187.61;105099;1281;139331;-73
2022/09/25 02:46:41;;;;;;;23.80;15.80;;;;;;;7.50;92.01;98188.83;105233;1282;22750;-74
2022/09/25 02:49:23;;;;;;;25.70;16.30;;;;;;;7.54;91.81;98195.39;105344;1282;138654;-74
2022/09/25 02:51:55;;;;;;;22.90;15.80;;;;;;;7.57;91.71;98196.34;105048;1282;22575;-73
2022/09/25 02:54:52;;;;;;;23.00;15.60;;;;;;;7.62;91.70;98198.06;105285;1282;138274;-74
2022/09/25 02:57:22;;;;;;;23.30;15.70;;;;;;;7.66;91.86;98195.20;105317;1282;30440;-73
2022/09/25 02:59:57;;;;;;;23.50;16.00;;;;;;;7.70;91.73;98192.55;105410;1282;25316;-73
2022/09/25 03:02:27;;;;;;;25.90;16.50;;;;;;;7.73;91.56;98192.84;105316;1282;24126;-73
2022/09/25 03:04:55;;;;;;;27.40;16.40;;;;;;;7.76;91.72;98195.23;105426;1282;22944;-73
2022/09/25 03:07:22;;;;;;;24.40;15.30;;;;;;;7.79;91.78;98188.32;104951;1282;138426;-73
2022/09/25 03:09:52;;;;;;;22.20;15.00;;;;;;;7.82;91.65;98188.94;105028;1282;22566;-73
2022/09/25 03:12:19;;;;;;;23.10;15.40;;;;;;;7.86;91.82;98183.23;105305;1282;140080;-73
2022/09/25 03:14:46;;;;;;;20.10;15.00;;;;;;;7.88;91.43;98183.26;105409;1282;23025;-74
2022/09/25 03:17:16;;;;;;;26.50;16.70;;;;;;;7.85;90.43;98177.17;105404;1281;25278;-74
2022/09/25 03:19:43;;;;;;;26.10;15.10;;;;;;;7.82;90.40;98179.44;105323;1282;138595;-73
2022/09/25 03:22:10;;;;;;;24.50;16.40;;;;;;;7.82;90.60;98171.16;105351;1282;25361;-73
2022/09/25 03:24:37;;;;;;;22.00;15.50;;;;;;;7.85;90.97;98171.64;105278;1282;138786;-74
2022/09/25 03:27:04;;;;;;;24.40;17.00;;;;;;;7.87;91.43;98170.23;105034;1282;22888;-74
2022/09/25 03:29:31;;;;;;;28.90;17.90;;;;;;;7.91;91.29;98170.65;105082;1282;25396;-73
2022/09/25 03:31:58;;;;;;;20.80;15.00;;;;;;;7.92;91.16;98172.52;104992;1282;138302;-73
2022/09/25 03:34:25;;;;;;;21.50;15.80;;;;;;;7.87;90.33;98168.55;105096;1282;22550;-73
2022/09/25 03:36:52;;;;;;;22.80;16.10;;;;;;;7.81;90.49;98166.85;105256;1282;139045;-73
2022/09/25 03:39:19;;;;;;;21.30;14.60;;;;;;;7.81;90.79;98167.32;105217;1282;22604;-74
2022/09/25 03:41:46;;;;;;;22.60;14.00;;;;;;;7.82;90.70;98167.73;104983;1282;22566;-73
2022/09/25 03:44:13;;;;;;;20.80;14.20;;;;;;;7.80;90.72;98169.41;105153;1282;138025;-73
2022/09/25 03:46:40;;;;;;;20.00;13.90;;;;;;;7.75;90.84;98168.88;105018;1282;24393;-74
2022/09/25 03:49:09;;;;;;;21.50;14.80;;;;;;;7.71;90.89;98166.70;105120;1282;138822;-73
2022/09/25 03:51:37;;;;;;;17.10;14.00;;;;;;;7.70;90.93;98164.50;105337;1282;25415;-73
2022/09/25 03:54:04;;;;;;;18.70;13.60;;;;;;;7.72;91.45;98162.17;105167;1282;138889;-73
2022/09/25 03:56:32;;;;;;;23.90;14.10;;;;;;;7.74;91.51;98160.98;105278;1281;24296;-73
2022/09/25 03:58:59;;;;;;;21.20;14.30;;;;;;;7.77;91.52;98163.23;105863;1281;24466;-74
2022/09/25 04:01:27;;;;;;;21.20;13.90;;;;;;;7.79;91.66;98159.21;105742;1281;141222;-73
2022/09/25 04:03:54;;;;;;;19.20;13.80;;;;;;;7.82;91.85;98161.02;105299;1282;24582;-73
2022/09/25 04:06:24;;;;;;;20.80;14.20;;;;;;;7.84;91.54;98159.23;105010;1281;138701;-74
2022/09/25 04:08:52;;;;;;;20.50;13.60;;;;;;;7.86;91.68;98154.59;105347;1281;22536;-73
2022/09/25 04:11:21;;;;;;;21.00;14.40;;;;;;;7.89;91.44;98153.85;105195;1281;24416;-73
2022/09/25 04:13:48;;;;;;;22.90;13.80;;;;;;;7.90;91.30;98157.91;104901;1282;138375;-73
2022/09/25 04:16:16;;;;;;;21.50;14.50;;;;;;;7.91;91.31;98157.39;105085;1282;24301;-76
2022/09/25 04:18:43;;;;;;;20.50;14.00;;;;;;;7.93;91.24;98155.42;105175;1281;138287;-73
2022/09/25 04:21:12;;;;;;;25.10;14.80;;;;;;;7.95;91.22;98154.49;105369;1282;24241;-73
2022/09/25 04:23:39;;;;;;;;;;;;;;;7.96;90.76;98157.96;105231;1282;22534;-73
2022/09/25 04:26:07;;;;;;;20.00;14.20;;;;;;;7.95;90.67;98159.36;105202;1281;124744;-73
2022/09/25 04:28:35;;;;;;;18.00;13.00;;;;;;;7.91;90.06;98162.31;105595;1281;22705;-73
2022/09/25 04:31:02;;;;;;;20.70;13.80;;;;;;;7.86;90.00;98156.86;105263;1281;138322;-73
2022/09/25 04:33:45;;;;;;;16.60;12.20;;;;;;;7.84;90.04;98159.52;105158;1282;22556;-73
2022/09/25 04:36:13;;;;;;;17.40;11.80;;;;;;;7.82;90.11;98157.55;105272;1281;138977;-73
2022/09/25 04:38:40;;;;;;;19.80;12.90;;;;;;;7.81;89.96;98161.32;105294;1281;26608;-74
2022/09/25 04:41:07;;;;;;;20.00;12.40;;;;;;;7.79;90.34;98163.55;105517;1281;22622;-73
2022/09/25 04:43:34;;;;;;;17.70;11.40;;;;;;;7.78;90.20;98164.81;104986;1281;138302;-74
2022/09/25 04:46:06;;;;;;;16.20;12.30;;;;;;;7.73;89.52;98164.11;105255;1282;23204;-74
2022/09/25 04:48:34;;;;;;;18.40;12.50;;;;;;;7.69;89.76;98161.52;105105;1281;138699;-73
2022/09/25 04:51:02;;;;;;;15.40;12.10;;;;;;;7.66;90.01;98160.85;105481;1281;25327;-73
2022/09/25 04:53:30;;;;;;;18.60;12.30;;;;;;;7.67;90.43;98157.71;105165;1282;22575;-73
2022/09/25 04:56:06;;;;;;;17.10;11.60;;;;;;;7.68;90.70;98155.14;105406;1281;138589;-73
2022/09/25 04:58:34;;;;;;;18.90;11.40;;;;;;;7.71;90.73;98155.85;105174;1282;22539;-73
2022/09/25 05:01:07;;;;;;;18.20;12.10;;;;;;;7.72;90.81;98154.75;105325;1281;138586;-74
2022/09/25 05:03:35;;;;;;;16.70;12.10;;;;;;;7.75;90.69;98154.16;105381;1281;25381;-73
2022/09/25 05:06:02;;;;;;;18.20;11.80;;;;;;;7.78;91.02;98155.48;105129;1281;139329;-73
2022/09/25 05:08:29;;;;;;;17.00;12.00;;;;;;;7.81;91.12;98160.02;105177;1282;25348;-73
2022/09/25 05:10:56;;;;;;;16.90;12.10;;;;;;;7.85;91.38;98155.83;105015;1282;24331;-73
2022/09/25 05:13:23;;;;;;;19.60;11.60;;;;;;;7.89;91.08;98155.38;105199;1281;138339;-73
2022/09/25 05:15:50;;;;;;;17.10;11.90;;;;;;;7.92;91.26;98153.54;105098;1282;22577;-73
2022/09/25 05:18:19;;;;;;;14.30;11.70;;;;;;;7.93;91.00;98152.65;105147;1281;138309;-73
2022/09/25 05:20:46;;;;;;;17.00;12.00;;;;;;;7.94;91.37;98158.84;105105;1281;25261;-73
2022/09/25 05:23:15;;;;;;;18.40;11.90;;;;;;;7.96;91.13;98162.09;105259;1281;24250;-73
2022/09/25 05:25:42;;;;;;;15.90;10.40;;;;;;;8.00;91.64;98164.73;105068;1282;138265;-74
2022/09/25 05:28:10;;;;;;;14.40;10.10;;;;;;;8.00;91.12;98165.98;105249;1282;25327;-73
2022/09/25 05:30:38;;;;;;;13.60;10.60;;;;;;;7.99;91.43;98166.67;105170;1281;138402;-73
2022/09/25 05:33:05;;;;;;;15.20;11.30;;;;;;;8.01;91.50;98165.15;105188;1281;24359;-74
2022/09/25 05:35:32;;;;;;;15.70;10.80;;;;;;;8.05;91.75;98168.17;105239;1281;22550;-73
2022/09/25 05:38:00;;;;;;;16.70;11.80;;;;;;;8.12;92.37;98169.08;105203;1281;138069;-71
2022/09/25 05:40:27;;;;;;;14.50;11.00;;;;;;;8.22;92.50;98174.89;105066;1282;22775;-71
2022/09/25 05:42:57;;;;;;;14.70;10.90;;;;;;;8.33;92.41;98172.42;104984;1282;138292;-71
2022/09/25 05:45:24;;;;;;;20.10;11.30;;;;;;;8.44;92.45;98169.10;105253;1281;25340;-73
2022/09/25 05:48:02;;;;;;;14.10;11.40;;;;;;;8.54;92.35;98160.48;105001;1282;22679;-71
2022/09/25 05:50:31;;;;;;;18.90;11.90;;;;;;;8.66;92.49;98166.55;105267;1281;22565;-71
2022/09/25 05:53:03;;;;;;;16.30;12.20;;;;;;;8.77;92.30;98165.85;104979;1282;26518;-71
2022/09/25 05:55:30;;;;;;;16.60;12.10;;;;;;;8.88;92.26;98163.51;104945;1282;138236;-71
2022/09/25 05:58:03;;;;;;;15.20;11.20;;;;;;;8.98;91.84;98160.66;105110;1282;22579;-71
2022/09/25 06:00:32;;;;;;;17.30;11.60;;;;;;;9.07;91.64;98163.34;104984;1282;138375;-71
2022/09/25 06:03:00;;;;;;;16.90;11.10;;;;;;;9.14;91.31;98166.73;105340;1282;25269;-71
2022/09/25 06:05:27;;;;;;;15.30;11.00;;;;;;;9.21;91.41;98171.05;105145;1282;24448;-72
2022/09/25 06:07:55;;;;;;;15.90;11.10;;;;;;;9.29;91.80;98168.95;104925;1282;138086;-72
2022/09/25 06:10:24;;;;;;;19.70;12.20;;;;;;;9.36;91.95;98161.20;105088;1282;24360;-71
2022/09/25 06:12:57;;;;;;;16.90;11.10;;;;;;;9.42;92.00;98157.88;105093;1282;138645;-71
2022/09/25 06:15:28;;;;;;;16.40;11.60;;;;;;;9.51;92.06;98159.13;105198;1282;22750;-71
2022/09/25 06:17:55;;;;;;;17.90;11.80;;;;;;;9.62;92.26;98162.03;105106;1282;138352;-72
2022/09/25 06:20:23;;;;;;;17.60;11.70;;;;;;;9.73;92.08;98159.60;105213;1282;22674;-71
2022/09/25 06:22:54;;;;;;;15.70;10.80;;;;;;;9.83;91.89;98158.52;105073;1282;22825;-71
2022/09/25 06:25:24;;;;;;;17.60;11.40;;;;;;;9.94;91.06;98157.04;104893;1282;138546;-71
2022/09/25 06:27:56;;;;;;;18.10;12.50;;;;;;;10.02;91.06;98157.02;105066;1282;25275;-71
2022/09/25 06:30:26;;;;;;;17.80;13.50;;;;;;;10.08;91.74;98160.65;104908;1282;138477;-71
2022/09/25 06:32:57;;;;;;;21.30;14.70;;;;;;;10.12;91.77;98153.89;105220;1282;24297;-71
2022/09/25 06:35:24;;;;;;;20.60;14.20;;;;;;;10.17;91.97;98154.26;105027;1282;24356;-71
2022/09/25 06:37:55;;;;;;;18.80;13.30;;;;;;;10.26;92.09;98152.73;105092;1282;138836;-71
2022/09/25 06:40:22;;;;;;;17.20;11.60;;;;;;;10.36;91.99;98154.38;105088;1282;23974;-71
2022/09/25 06:42:54;;;;;;;16.60;10.60;;;;;;;10.45;90.30;98158.64;105184;1282;138465;-72
2022/09/25 06:45:21;;;;;;;15.30;10.70;;;;;;;10.56;89.27;98156.89;105165;1282;24428;-72
2022/09/25 06:47:49;;;;;;;14.60;10.60;;;;;;;10.67;88.53;98158.16;105065;1282;25257;-71
2022/09/25 06:50:15;;;;;;;16.40;11.70;;;;;;;10.77;88.11;98159.71;105279;1282;138735;-72
2022/09/25 06:52:43;;;;;;;17.90;13.50;;;;;;;10.89;88.52;98163.44;105198;1282;22636;-71
2022/09/25 06:55:10;;;;;;;20.90;14.70;;;;;;;11.00;88.92;98162.71;105149;1282;138392;-70
2022/09/25 06:57:37;;;;;;;20.60;13.50;;;;;;;11.09;89.28;98156.15;105287;1282;25273;-71
2022/09/25 07:00:05;;;;;;;19.60;13.90;;;;;;;11.18;88.90;98158.33;105358;1282;140021;-71
2022/09/25 07:05:17;;;;;;;20.10;13.50;;;;;;;11.34;88.14;98155.48;105315;1282;24435;-71
2022/09/25 07:07:45;;;;;;;17.70;13.10;;;;;;;11.38;88.01;98147.02;105209;1281;138841;-71
2022/09/25 07:10:12;;;;;;;17.90;13.40;;;;;;;11.43;87.87;98151.20;105216;1282;24283;-71
2022/09/25 07:12:40;;;;;;;16.40;12.40;;;;;;;11.49;87.83;98148.81;105121;1282;138692;-71
2022/09/25 07:15:07;;;;;;;17.10;12.30;;;;;;;11.55;87.98;98146.96;105277;1282;25343;-71
2022/09/25 07:17:34;;;;;;;15.40;12.70;;;;;;;11.63;88.01;98149.32;105141;1282;22576;-71
2022/09/25 07:20:01;;;;;;;16.00;13.10;;;;;;;11.70;87.69;98149.88;105141;1281;138723;-71
2022/09/25 07:22:28;;;;;;;16.70;11.70;;;;;;;11.77;87.68;98156.25;105071;1282;22731;-71
2022/09/25 07:24:56;;;;;;;14.80;11.90;;;;;;;11.83;87.42;98154.06;105188;1282;138390;-71
2022/09/25 07:27:22;;;;;;;15.10;11.10;;;;;;;11.90;86.41;98155.55;105352;1282;23924;-71
2022/09/25 07:29:51;;;;;;;13.80;10.20;;;;;;;11.94;85.13;98158.16;105428;1282;22563;-71
2022/09/25 07:32:19;;;;;;;16.00;10.50;;;;;;;11.96;84.98;98156.11;105095;1282;138451;-70
2022/09/25 07:34:49;;;;;;;16.60;12.50;;;;;;;11.99;84.44;98158.70;105248;1281;22547;-71
2022/09/25 07:37:19;;;;;;;14.70;10.90;;;;;;;12.01;84.22;98156.58;105005;1283;138719;-70
2022/09/25 07:39:46;;;;;;;15.00;11.00;;;;;;;12.03;83.93;98156.64;105550;1282;22576;-71
2022/09/25 07:42:12;;;;;;;14.60;11.90;;;;;;;12.02;83.84;98152.27;105473;1282;138524;-73
2022/09/25 07:44:39;;;;;;;14.30;11.70;;;;;;;12.00;83.45;98156.30;106860;1281;22497;-72
2022/09/25 07:47:07;;;;;;;17.00;11.90;;;;;;;11.98;83.35;98151.48;105415;1282;25385;-72
2022/09/25 07:49:35;;;;;;;15.20;11.70;;;;;;;11.94;83.56;98150.20;105580;1281;140173;-71
2022/09/25 07:52:05;;;;;;;16.30;11.50;;;;;;;11.94;83.59;98150.58;105316;1284;22540;-71
2022/09/25 07:54:41;;;;;;;15.00;12.00;;;;;;;11.94;83.30;98148.13;105360;1281;140354;-71
2022/09/25 07:57:12;;;;;;;14.50;11.10;;;;;;;11.95;83.76;98148.84;105415;1281;23287;-72
2022/09/25 07:59:44;;;;;;;18.00;13.00;;;;;;;11.96;83.62;98153.72;105636;1281;25495;-73
2022/09/25 08:02:14;;;;;;;19.40;11.80;;;;;;;11.96;83.44;98154.90;105321;1282;138849;-74
2022/09/25 08:04:43;;;;;;;18.20;12.20;;;;;;;11.97;84.15;98154.27;105520;1281;22706;-74
2022/09/25 08:07:30;;;;;;;16.20;11.30;;;;;;;11.95;83.56;98156.64;106088;1281;138389;-73
2022/09/25 08:10:15;;;;;;;15.80;12.60;;;;;;;11.88;83.61;98154.28;105420;1282;25470;-74
2022/09/25 08:12:44;;;;;;;15.70;12.60;;;;;;;11.89;84.25;98156.79;105278;1282;138395;-70
2022/09/25 08:15:15;;;;;;;18.20;13.00;;;;;;;11.92;84.67;98160.60;105418;1281;25384;-77
2022/09/25 08:17:43;;;;;;;19.00;13.50;;;;;;;11.96;84.44;98160.42;105440;1282;25260;-72
2022/09/25 08:20:10;;;;;;;16.00;12.60;;;;;;;12.00;84.68;98157.11;105115;1281;138225;-73
2022/09/25 08:22:37;;;;;;;19.40;12.90;;;;;;;12.03;84.58;98157.35;105120;1282;24456;-71
2022/09/25 08:25:04;;;;;;;17.30;12.90;;;;;;;12.05;84.02;98160.70;105245;1281;138261;-72
2022/09/25 08:27:34;;;;;;;16.20;11.80;;;;;;;12.04;83.62;98165.23;105255;1281;22576;-71
2022/09/25 08:30:02;;;;;;;17.50;12.70;;;;;;;12.04;83.26;98168.19;105161;1282;138590;-71
2022/09/25 08:32:33;;;;;;;16.00;11.60;;;;;;;12.04;83.36;98165.29;105292;1281;22829;-71
2022/09/25 08:35:00;;;;;;;15.80;12.20;;;;;;;12.04;83.37;98162.32;104985;1283;22605;-71
2022/09/25 08:37:28;;;;;;;18.10;12.80;;;;;;;12.03;83.32;98155.07;104881;1282;138439;-71
2022/09/25 08:39:55;;;;;;;15.80;11.90;;;;;;;12.05;83.81;98153.52;105182;1281;25377;-71
2022/09/25 08:42:29;;;;;;;14.40;11.60;;;;;;;12.08;84.49;98151.94;105048;1281;138543;-71
2022/09/25 08:50:32;;;;;;;15.90;11.00;;;;;;;12.20;85.19;98145.80;105032;1282;22534;-71
2022/09/25 08:53:33;;;;;;;14.10;11.20;;;;;;;12.20;84.93;98139.80;105027;1282;25366;-71
2022/09/25 08:56:19;;;;;;;13.20;10.10;;;;;;;12.19;84.84;98135.30;105046;1282;138547;-71
2022/09/25 08:58:45;;;;;;;12.70;10.20;;;;;;;12.18;85.19;98133.33;105082;1282;22640;-70
2022/09/25 09:01:18;;;;;;;15.70;11.40;;;;;;;12.17;85.31;98134.04;105211;1282;138437;-71
2022/09/25 09:03:55;;;;;;;15.60;10.30;;;;;;;12.16;85.21;98132.77;105022;1282;22543;-71
2022/09/25 09:06:26;;;;;;;12.50;10.10;;;;;;;12.14;85.40;98126.59;105189;1282;138616;-71
2022/09/25 09:09:06;;;;;;;16.50;10.10;;;;;;;12.15;85.78;98123.04;105224;1282;22703;-71
2022/09/25 09:11:48;;;;;;;11.10;8.80;;;;;;;12.17;85.66;98123.11;105121;1282;25341;-70
2022/09/25 09:14:19;;;;;;;13.60;9.60;;;;;;;12.18;85.85;98117.11;104938;1282;138538;-71
2022/09/25 09:17:14;;;;;;;11.90;9.80;;;;;;;12.17;85.80;98109.19;105026;1282;25269;-71
2022/09/25 09:19:41;;;;;;;13.40;9.70;;;;;;;12.18;85.76;98107.95;104901;1282;138435;-71
2022/09/25 09:22:20;;;;;;;12.00;9.70;;;;;;;12.19;85.96;98103.95;105255;1282;22617;-71
2022/09/25 09:24:59;;;;;;;13.80;9.30;;;;;;;12.18;85.97;98104.61;105085;1282;138558;-71
2022/09/25 09:27:47;;;;;;;12.00;9.90;;;;;;;12.12;85.62;98108.02;105180;1282;22537;-70
2022/09/25 09:30:16;;;;;;;10.60;9.20;;;;;;;12.09;85.91;98105.42;105142;1282;139187;-71
2022/09/25 09:33:06;;;;;;;13.30;9.10;;;;;;;12.08;85.87;98106.95;105235;1282;25384;-71
2022/09/25 09:36:07;;;;;;;12.70;9.30;;;;;;;12.09;86.28;98106.27;105185;1281;30740;-70
2022/09/25 09:38:49;;;;;;;13.80;10.40;;;;;;;12.10;86.44;98102.33;105295;1282;22557;-70
2022/09/25 09:41:31;;;;;;;14.00;10.60;;;;;;;12.10;86.93;98106.31;105220;1282;22564;-71
2022/09/25 09:44:27;;;;;;;12.00;10.50;;;;;;;12.10;86.46;98104.30;105226;1282;138846;-70
2022/09/25 09:47:24;;;;;;;13.70;10.90;;;;;;;12.10;86.30;98100.53;105008;1282;22647;-70
2022/09/25 09:50:16;;;;;;;11.00;9.40;;;;;;;12.11;86.40;98098.79;105017;1282;138295;-70
2022/09/25 09:52:47;;;;;;;10.60;9.20;;;;;;;12.13;86.71;98093.72;105196;1283;25342;-70
2022/09/25 09:55:25;;;;;;;13.00;9.40;;;;;;;12.13;86.77;98089.63;105044;1282;138519;-70
2022/09/25 09:57:56;;;;;;;12.10;8.70;;;;;;;12.12;86.60;98084.65;105015;1282;24286;-70
2022/09/25 10:00:23;;;;;;;14.70;9.90;;;;;;;12.11;86.61;98085.52;104942;1282;138268;-70
2022/09/25 10:02:59;;;;;;;12.70;9.90;;;;;;;12.10;86.82;98086.77;105152;1282;24442;-70
2022/09/25 10:05:34;;;;;;;10.90;9.30;;;;;;;12.08;86.87;98090.30;105209;1282;22578;-70
2022/09/25 10:08:01;;;;;;;14.00;10.90;;;;;;;12.06;87.18;98093.19;105133;1282;138581;-70
2022/09/25 10:10:36;;;;;;;15.40;11.50;;;;;;;12.06;87.10;98094.89;105273;1282;22566;-70
2022/09/25 10:13:10;;;;;;;14.80;12.10;;;;;;;12.08;87.50;98098.44;104981;1282;138576;-70
2022/09/25 10:15:45;;;;;;;17.40;11.40;;;;;;;12.11;87.34;98098.95;105157;1282;22564;-70
2022/09/25 10:18:14;;;;;;;15.70;12.10;;;;;;;12.16;87.55;98095.65;104886;1282;139185;-70
2022/09/25 10:20:46;;;;;;;16.10;12.50;;;;;;;12.19;87.72;98096.86;105118;1282;25391;-70
2022/09/25 10:23:59;;;;;;;14.80;11.20;;;;;;;12.22;87.12;98101.09;105158;1282;22713;-70
2022/09/25 10:26:52;;;;;;;13.80;11.00;;;;;;;12.26;87.00;98092.77;105000;1282;31712;-70
2022/09/25 10:29:18;;;;;;;15.80;12.30;;;;;;;12.30;86.93;98077.54;105104;1282;25238;-70
2022/09/25 10:31:46;;;;;;;13.80;12.10;;;;;;;12.34;86.90;98081.27;105112;1282;138541;-70
2022/09/25 10:34:15;;;;;;;15.70;12.80;;;;;;;12.40;86.81;98079.45;105044;1282;25386;-70
2022/09/25 10:36:52;;;;;;;14.40;11.90;;;;;;;12.44;86.32;98082.69;105005;1282;139319;-70
2022/09/25 10:39:25;;;;;;;17.20;11.90;;;;;;;12.46;85.65;98082.42;105188;1282;24386;-70
2022/09/25 10:41:53;;;;;;;12.60;10.90;;;;;;;12.46;85.69;98080.94;105048;1283;22545;-70
2022/09/25 10:44:33;;;;;;;12.10;10.30;;;;;;;12.50;85.53;98081.08;105244;1282;25460;-70
2022/09/25 10:50:13;;;;;;;13.60;9.30;;;;;;;12.65;84.83;98072.70;104933;1283;138782;-70
2022/09/25 10:52:57;;;;;;;9.40;8.40;;;;;;;12.71;84.54;98073.45;105241;1282;22696;-70
2022/09/25 10:55:27;;;;;;;13.00;9.40;;;;;;;12.79;84.04;98079.31;104926;1282;138271;-70
2022/09/25 10:58:03;;;;;;;12.50;9.40;;;;;;;12.84;83.97;98080.86;105181;1282;23945;-70
2022/09/25 11:00:32;;;;;;;10.20;8.20;;;;;;;12.87;83.66;98078.14;105234;1282;138672;-70
2022/09/25 11:03:03;;;;;;;10.60;8.50;;;;;;;12.86;82.82;98078.23;105268;1282;25356;-70
2022/09/25 11:05:34;;;;;;;10.80;8.60;;;;;;;12.88;83.24;98078.02;105417;1282;23530;-70
2022/09/25 11:08:08;;;;;;;13.40;8.90;;;;;;;12.95;83.58;98080.78;105024;1282;139234;-70
2022/09/25 11:10:55;;;;;;;10.10;8.70;;;;;;;13.04;83.97;98078.39;105236;1282;23932;-70
2022/09/25 11:13:26;;;;;;;12.20;8.90;;;;;;;13.16;83.35;98071.36;105133;1282;138389;-70
2022/09/25 11:16:00;;;;;;;11.70;9.00;;;;;;;13.27;83.20;98073.73;105172;1282;22682;-70
2022/09/25 11:18:38;;;;;;;11.30;8.70;;;;;;;13.35;82.36;98073.15;105096;1282;138332;-70
2022/09/25 11:21:36;;;;;;;12.40;9.10;;;;;;;13.44;83.04;98065.02;105129;1283;25269;-70
2022/09/25 11:24:15;;;;;;;11.00;8.90;;;;;;;13.56;82.47;98060.89;105082;1281;139595;-70
2022/09/25 11:26:57;;;;;;;;;;;;;;;13.65;82.14;98058.55;105142;1282;22670;-70
2022/09/25 11:29:53;;;;;;;12.40;9.40;;;;;;;13.73;82.63;98061.89;105131;1282;24241;-70
2022/09/25 11:32:37;;;;;;;17.30;10.20;;;;;;;13.84;82.95;98059.67;104958;1284;22694;-70
2022/09/25 11:35:23;;;;;;;12.60;10.60;;;;;;;13.94;83.04;98063.16;104902;1284;25268;-70
2022/09/25 11:41:22;;;;;;;14.40;11.50;;;;;;;14.08;82.48;98059.18;104839;1284;22605;-71
2022/09/25 11:44:33;;;;;;;13.50;10.70;;;;;;;14.16;82.92;98054.85;105044;1284;138906;-71
2022/09/25 11:47:14;;;;;;;11.90;9.90;;;;;;;14.24;81.85;98054.15;105199;1284;25342;-71
2022/09/25 11:49:42;;;;;;;12.00;10.10;;;;;;;14.25;80.93;98049.17;104937;1284;138184;-71
2022/09/25 11:52:36;;;;;;;13.10;10.30;;;;;;;14.27;81.61;98043.90;105012;1284;24330;-71
2022/09/25 11:55:12;;;;;;;12.40;8.30;;;;;;;14.36;81.05;98044.27;104811;1284;138255;-71
2022/09/25 11:58:09;;;;;;;9.10;7.50;;;;;;;14.44;80.66;98032.77;105032;1285;22567;-71